createdAt,value
2022-08-20T00:02:15.706Z,16.30
2022-08-20T00:04:44.073Z,16.30
2022-08-20T00:07:14.129Z,16.20
2022-08-20T00:09:43.034Z,16.30
2022-08-20T00:12:13.518Z,16.30
2022-08-20T00:14:42.306Z,16.30
2022-08-20T00:17:10.896Z,16.30
2022-08-20T00:19:39.461Z,16.20
2022-08-20T00:22:07.757Z,16.30
2022-08-20T00:24:37.250Z,16.30
2022-08-20T00:27:05.699Z,16.30
2022-08-20T00:29:33.833Z,16.30
2022-08-20T00:32:02.057Z,16.20
2022-08-20T00:34:30.415Z,16.20
2022-08-20T00:36:58.858Z,16.20
2022-08-20T00:39:27.120Z,16.20
2022-08-20T00:41:56.971Z,16.20
2022-08-20T00:44:25.170Z,16.20
2022-08-20T00:46:54.811Z,16.20
2022-08-20T00:49:25.957Z,16.20
2022-08-20T00:51:58.931Z,16.20
2022-08-20T00:54:31.527Z,16.10
2022-08-20T00:57:08.454Z,16.20
2022-08-20T00:59:40.160Z,16.10
2022-08-20T01:02:12.789Z,16.10
2022-08-20T01:04:44.028Z,16.10
2022-08-20T01:07:12.255Z,16.10
2022-08-20T01:09:57.986Z,16.10
2022-08-20T01:12:29.666Z,16.10
2022-08-20T01:15:01.398Z,16.00
2022-08-20T01:17:34.108Z,16.00
2022-08-20T01:20:06.284Z,16.10
2022-08-20T01:22:59.361Z,16.00
2022-08-20T01:25:35.869Z,16.00
2022-08-20T01:28:05.946Z,16.10
2022-08-20T01:30:35.008Z,16.00
2022-08-20T01:33:03.185Z,16.00
2022-08-20T01:35:31.528Z,16.00
2022-08-20T01:37:59.666Z,16.00
2022-08-20T01:40:45.709Z,16.00
2022-08-20T01:43:16.018Z,16.00
2022-08-20T01:45:45.933Z,15.90
2022-08-20T01:48:18.102Z,15.90
2022-08-20T01:50:55.535Z,15.90
2022-08-20T01:53:30.039Z,16.00
2022-08-20T01:55:58.241Z,15.90
2022-08-20T01:58:29.762Z,15.90
2022-08-20T02:00:59.141Z,15.90
2022-08-20T02:03:27.531Z,15.90
2022-08-20T02:05:55.718Z,15.90
2022-08-20T02:08:23.909Z,15.80
2022-08-20T02:10:53.021Z,15.90
2022-08-20T02:13:21.167Z,15.80
2022-08-20T02:15:50.904Z,15.90
2022-08-20T02:18:20.627Z,15.90
2022-08-20T02:20:51.433Z,15.80
2022-08-20T02:23:20.566Z,15.80
2022-08-20T02:25:49.999Z,15.80
2022-08-20T02:28:20.781Z,15.80
2022-08-20T02:30:55.341Z,15.80
2022-08-20T02:33:24.786Z,15.80
2022-08-20T02:35:57.120Z,15.80
2022-08-20T02:38:25.782Z,15.70
2022-08-20T02:40:54.343Z,15.70
2022-08-20T02:43:22.614Z,15.70
2022-08-20T02:45:52.153Z,15.70
2022-08-20T02:48:23.385Z,15.70
2022-08-20T02:50:54.967Z,15.70
2022-08-20T02:53:23.637Z,15.70
2022-08-20T02:55:52.553Z,15.70
2022-08-20T02:58:21.385Z,15.70
2022-08-20T03:00:50.426Z,15.70
2022-08-20T03:03:22.849Z,15.60
2022-08-20T03:05:53.859Z,15.70
2022-08-20T03:08:22.914Z,15.70
2022-08-20T03:10:51.825Z,15.70
2022-08-20T03:13:21.854Z,15.70
2022-08-20T03:15:56.615Z,15.70
2022-08-20T03:18:31.119Z,15.60
2022-08-20T03:20:59.401Z,15.60
2022-08-20T03:23:27.542Z,15.60
2022-08-20T03:25:55.783Z,15.50
2022-08-20T03:28:24.121Z,15.60
2022-08-20T03:30:53.339Z,15.50
2022-08-20T03:33:22.815Z,15.50
2022-08-20T03:35:52.559Z,15.40
2022-08-20T03:38:32.426Z,15.40
2022-08-20T03:41:03.063Z,15.30
2022-08-20T03:43:32.644Z,15.20
2022-08-20T03:46:01.246Z,15.20
2022-08-20T03:48:29.554Z,15.10
2022-08-20T03:51:01.044Z,15.10
2022-08-20T03:53:31.699Z,15.10
2022-08-20T03:56:03.747Z,15.00
2022-08-20T03:58:34.905Z,15.00
2022-08-20T04:01:06.463Z,14.90
2022-08-20T04:03:34.767Z,14.90
2022-08-20T04:06:04.973Z,14.80
2022-08-20T04:08:33.134Z,14.80
2022-08-20T04:11:01.382Z,14.80
2022-08-20T04:13:31.975Z,14.80
2022-08-20T04:16:03.720Z,14.70
2022-08-20T04:18:32.455Z,14.70
2022-08-20T04:21:00.586Z,14.70
2022-08-20T04:23:31.285Z,14.70
2022-08-20T04:26:01.178Z,14.70
2022-08-20T04:28:30.353Z,14.70
2022-08-20T04:31:00.062Z,14.70
2022-08-20T04:33:33.273Z,14.60
2022-08-20T04:36:06.040Z,14.70
2022-08-20T04:38:49.893Z,14.60
2022-08-20T04:41:23.071Z,14.60
2022-08-20T04:43:54.165Z,14.60
2022-08-20T04:46:25.658Z,14.60
2022-08-20T04:48:54.389Z,14.60
2022-08-20T04:51:24.237Z,14.60
2022-08-20T04:53:56.508Z,14.60
2022-08-20T04:56:27.304Z,14.60
2022-08-20T04:58:57.994Z,14.60
2022-08-20T05:01:27.663Z,14.60
2022-08-20T05:03:57.334Z,14.60
2022-08-20T05:06:28.642Z,14.60
2022-08-20T05:09:00.060Z,14.60
2022-08-20T05:11:35.644Z,14.60
2022-08-20T05:14:07.943Z,14.50
2022-08-20T05:16:39.300Z,14.50
2022-08-20T05:19:08.932Z,14.40
2022-08-20T05:21:37.560Z,14.40
2022-08-20T05:24:08.742Z,14.30
2022-08-20T05:26:37.030Z,14.30
2022-08-20T05:29:07.002Z,14.20
2022-08-20T05:31:36.164Z,14.20
2022-08-20T05:34:09.740Z,14.20
2022-08-20T05:36:39.814Z,14.20
2022-08-20T05:39:10.894Z,14.20
2022-08-20T05:41:39.633Z,14.20
2022-08-20T05:44:10.987Z,14.20
2022-08-20T05:46:41.265Z,14.10
2022-08-20T05:49:09.611Z,14.20
2022-08-20T05:51:38.105Z,14.10
2022-08-20T05:54:07.471Z,14.10
2022-08-20T05:56:37.883Z,14.10
2022-08-20T05:59:08.217Z,14.10
2022-08-20T06:01:39.697Z,14.10
2022-08-20T06:04:28.250Z,14.10
2022-08-20T06:06:59.723Z,14.10
2022-08-20T06:09:32.301Z,14.10
2022-08-20T06:12:03.793Z,14.10
2022-08-20T06:14:32.705Z,14.20
2022-08-20T06:17:05.775Z,14.30
2022-08-20T06:19:35.025Z,14.30
2022-08-20T06:22:06.792Z,14.30
2022-08-20T06:24:46.381Z,14.40
2022-08-20T06:27:17.342Z,14.40
2022-08-20T06:29:45.883Z,14.50
2022-08-20T06:32:14.435Z,14.50
2022-08-20T06:34:50.523Z,14.40
2022-08-20T06:37:21.021Z,14.50
2022-08-20T06:39:49.319Z,14.60
2022-08-20T06:42:20.757Z,14.60
2022-08-20T06:44:49.553Z,14.70
2022-08-20T06:47:18.641Z,14.80
2022-08-20T06:49:47.592Z,14.80
2022-08-20T06:52:17.221Z,14.80
2022-08-20T06:54:45.540Z,14.90
2022-08-20T06:57:14.031Z,15.00
2022-08-20T06:59:43.635Z,15.10
2022-08-20T07:02:17.378Z,15.20
2022-08-20T07:04:45.687Z,15.20
2022-08-20T07:07:17.925Z,15.30
2022-08-20T07:09:47.006Z,15.40
2022-08-20T07:12:15.575Z,15.50
2022-08-20T07:14:45.305Z,15.50
2022-08-20T07:17:13.689Z,15.60
2022-08-20T07:19:42.132Z,15.70
2022-08-20T07:22:10.477Z,15.70
2022-08-20T07:24:41.168Z,15.80
2022-08-20T07:27:10.297Z,15.80
2022-08-20T07:29:55.925Z,16.00
2022-08-20T07:32:39.366Z,16.10
2022-08-20T07:35:10.633Z,16.30
2022-08-20T07:37:41.447Z,16.50
2022-08-20T07:40:13.200Z,16.50
2022-08-20T07:42:41.474Z,16.60
2022-08-20T07:45:11.974Z,16.70
2022-08-20T07:47:42.964Z,16.80
2022-08-20T07:50:15.665Z,16.90
2022-08-20T07:52:45.850Z,17.10
2022-08-20T07:55:16.504Z,17.20
2022-08-20T07:57:46.873Z,17.30
2022-08-20T08:00:16.654Z,17.40
2022-08-20T08:02:46.613Z,17.60
2022-08-20T08:05:16.255Z,17.80
2022-08-20T08:07:44.794Z,17.90
2022-08-20T08:10:16.662Z,17.90
2022-08-20T08:12:49.815Z,18.10
2022-08-20T08:15:22.656Z,18.30
2022-08-20T08:17:55.799Z,18.10
2022-08-20T08:20:24.322Z,18.10
2022-08-20T08:22:54.047Z,18.00
2022-08-20T08:25:22.496Z,18.10
2022-08-20T08:27:50.781Z,17.90
2022-08-20T08:30:19.235Z,17.80
2022-08-20T08:33:04.665Z,17.90
2022-08-20T08:35:34.421Z,17.90
2022-08-20T08:38:02.885Z,18.00
2022-08-20T08:40:32.913Z,18.00
2022-08-20T08:43:04.426Z,18.10
2022-08-20T08:45:43.680Z,18.20
2022-08-20T08:48:18.295Z,18.30
2022-08-20T08:50:53.233Z,18.30
2022-08-20T08:53:26.184Z,18.40
2022-08-20T08:55:54.703Z,18.50
2022-08-20T08:58:23.054Z,18.70
2022-08-20T09:00:53.501Z,18.70
2022-08-20T09:03:29.467Z,18.80
2022-08-20T09:06:02.324Z,18.90
2022-08-20T09:08:34.644Z,18.90
2022-08-20T09:11:05.310Z,19.00
2022-08-20T09:13:33.839Z,19.30
2022-08-20T09:16:02.208Z,19.60
2022-08-20T09:18:30.506Z,19.70
2022-08-20T09:21:00.154Z,19.70
2022-08-20T09:23:28.376Z,19.80
2022-08-20T09:25:56.552Z,19.80
2022-08-20T09:28:24.998Z,19.90
2022-08-20T09:31:00.728Z,20.00
2022-08-20T09:33:28.942Z,20.10
2022-08-20T09:35:57.307Z,20.10
2022-08-20T09:38:27.135Z,20.20
2022-08-20T09:40:55.313Z,20.30
2022-08-20T09:43:23.646Z,20.40
2022-08-20T09:45:51.939Z,20.20
2022-08-20T09:48:20.194Z,20.10
2022-08-20T09:50:57.904Z,20.10
2022-08-20T09:53:27.832Z,19.80
2022-08-20T09:55:58.820Z,19.90
2022-08-20T09:58:33.981Z,19.90
2022-08-20T10:01:07.450Z,19.90
2022-08-20T10:03:43.056Z,19.80
2022-08-20T10:06:14.864Z,19.80
2022-08-20T10:08:44.710Z,19.80
2022-08-20T10:11:13.928Z,19.90
2022-08-20T10:13:42.048Z,19.90
2022-08-20T10:16:10.366Z,19.80
2022-08-20T10:18:38.539Z,19.80
2022-08-20T10:21:11.182Z,19.90
2022-08-20T10:23:39.699Z,20.00
2022-08-20T10:26:10.770Z,20.00
2022-08-20T10:28:39.474Z,20.00
2022-08-20T10:31:08.144Z,20.10
2022-08-20T10:33:36.778Z,20.00
2022-08-20T10:36:08.389Z,20.20
2022-08-20T10:38:36.607Z,20.30
2022-08-20T10:41:04.814Z,20.40
2022-08-20T10:43:34.701Z,20.40
2022-08-20T10:46:02.891Z,20.50
2022-08-20T10:48:31.310Z,20.50
2022-08-20T10:50:59.555Z,20.60
2022-08-20T10:53:27.947Z,20.50
2022-08-20T10:55:57.686Z,20.40
2022-08-20T10:58:26.606Z,20.40
2022-08-20T11:01:07.629Z,20.50
2022-08-20T11:03:35.945Z,20.60
2022-08-20T11:06:04.456Z,20.60
2022-08-20T11:08:34.052Z,20.60
2022-08-20T11:11:04.893Z,20.60
2022-08-20T11:13:33.751Z,20.40
2022-08-20T11:16:03.004Z,20.40
2022-08-20T11:18:33.370Z,20.50
2022-08-20T11:21:02.266Z,20.60
2022-08-20T11:23:30.700Z,20.70
2022-08-20T11:25:59.655Z,20.70
2022-08-20T11:28:30.964Z,20.60
2022-08-20T11:31:00.606Z,20.70
2022-08-20T11:33:28.872Z,20.60
2022-08-20T11:35:58.994Z,20.50
2022-08-20T11:38:27.210Z,20.50
2022-08-20T11:40:55.531Z,20.50
2022-08-20T11:43:23.706Z,20.30
2022-08-20T11:45:55.873Z,20.30
2022-08-20T11:48:24.261Z,20.40
2022-08-20T11:50:53.261Z,20.40
2022-08-20T11:53:22.844Z,20.50
2022-08-20T11:55:51.419Z,20.60
2022-08-20T11:58:20.026Z,20.60
2022-08-20T12:00:48.306Z,20.60
2022-08-20T12:03:16.623Z,20.80
2022-08-20T12:05:46.352Z,20.70
2022-08-20T12:08:25.074Z,20.70
2022-08-20T12:11:00.729Z,20.60
2022-08-20T12:13:47.362Z,20.60
2022-08-20T12:16:17.868Z,20.50
2022-08-20T12:18:46.840Z,20.50
2022-08-20T12:21:15.194Z,20.50
2022-08-20T12:23:43.343Z,20.50
2022-08-20T12:26:13.137Z,20.40
2022-08-20T12:28:41.271Z,20.30
2022-08-20T12:31:09.533Z,20.30
2022-08-20T12:33:37.664Z,20.20
2022-08-20T12:36:06.162Z,20.10
2022-08-20T12:38:34.327Z,20.00
2022-08-20T12:41:02.723Z,19.90
2022-08-20T12:43:32.298Z,19.80
2022-08-20T12:46:00.552Z,19.70
2022-08-20T12:48:28.731Z,19.60
2022-08-20T12:50:56.961Z,19.50
2022-08-20T12:53:25.203Z,19.40
2022-08-20T12:55:53.350Z,19.30
2022-08-20T12:58:21.710Z,19.20
2022-08-20T13:00:51.498Z,19.10
2022-08-20T13:03:20.799Z,19.10
2022-08-20T13:05:49.606Z,19.10
2022-08-20T13:08:19.385Z,19.10
2022-08-20T13:10:48.617Z,18.90
2022-08-20T13:13:20.475Z,18.90
2022-08-20T13:15:51.894Z,18.90
2022-08-20T13:18:21.150Z,18.80
2022-08-20T13:20:49.561Z,18.80
2022-08-20T13:23:18.207Z,18.70
2022-08-20T13:25:46.391Z,18.70
2022-08-20T13:28:14.777Z,18.70
2022-08-20T13:30:43.146Z,18.50
2022-08-20T13:33:12.718Z,18.60
2022-08-20T13:35:40.999Z,18.50
2022-08-20T13:38:09.424Z,18.60
2022-08-20T13:40:37.671Z,18.60
2022-08-20T13:43:07.417Z,18.60
2022-08-20T13:45:40.711Z,18.70
2022-08-20T13:48:14.601Z,18.60
2022-08-20T13:50:46.893Z,18.60
2022-08-20T13:53:16.035Z,18.50
2022-08-20T13:55:45.671Z,18.50
2022-08-20T13:58:13.924Z,18.50
2022-08-20T14:00:42.168Z,18.50
2022-08-20T14:03:10.543Z,18.50
2022-08-20T14:05:39.662Z,18.50
2022-08-20T14:08:11.458Z,18.50
2022-08-20T14:10:40.002Z,18.50
2022-08-20T14:13:15.380Z,18.50
2022-08-20T14:15:44.791Z,18.50
2022-08-20T14:18:15.343Z,18.50
2022-08-20T14:20:45.524Z,18.50
2022-08-20T14:23:15.860Z,18.50
2022-08-20T14:25:46.956Z,18.50
2022-08-20T14:28:18.425Z,18.50
2022-08-20T14:30:53.070Z,18.50
2022-08-20T14:33:22.676Z,18.60
2022-08-20T14:35:51.173Z,18.50
2022-08-20T14:38:20.953Z,18.60
2022-08-20T14:40:50.607Z,18.60
2022-08-20T14:43:19.126Z,18.60
2022-08-20T14:45:47.534Z,18.60
2022-08-20T14:48:16.050Z,18.60
2022-08-20T14:50:44.280Z,18.60
2022-08-20T14:53:12.673Z,18.70
2022-08-20T14:55:42.601Z,18.70
2022-08-20T14:58:12.554Z,18.70
2022-08-20T15:00:41.136Z,18.80
2022-08-20T15:03:09.854Z,18.80
2022-08-20T15:05:39.502Z,18.90
2022-08-20T15:08:10.659Z,18.90
2022-08-20T15:10:41.077Z,18.90
2022-08-20T15:13:09.765Z,18.90
2022-08-20T15:15:39.484Z,18.90
2022-08-20T15:18:08.133Z,19.00
2022-08-20T15:20:37.705Z,19.00
2022-08-20T15:23:07.171Z,19.10
2022-08-20T15:25:37.906Z,19.10
2022-08-20T15:28:09.893Z,19.10
2022-08-20T15:30:39.290Z,19.20
2022-08-20T15:33:07.694Z,19.20
2022-08-20T15:35:36.133Z,19.30
2022-08-20T15:38:04.490Z,19.30
2022-08-20T15:40:34.249Z,19.40
2022-08-20T15:43:04.336Z,19.50
2022-08-20T15:45:34.809Z,19.60
2022-08-20T15:48:09.799Z,19.60
2022-08-20T15:50:57.154Z,19.50
2022-08-20T15:53:31.244Z,19.50
2022-08-20T15:56:08.392Z,19.50
2022-08-20T15:58:52.915Z,19.60
2022-08-20T16:01:31.595Z,19.50
2022-08-20T16:04:17.678Z,19.40
2022-08-20T16:06:51.317Z,19.40
2022-08-20T16:09:39.418Z,19.40
2022-08-20T16:12:11.504Z,19.50
2022-08-20T16:14:42.072Z,19.40
2022-08-20T16:17:16.109Z,19.40
2022-08-20T16:19:52.158Z,19.40
2022-08-20T16:22:21.131Z,19.30
2022-08-20T16:24:49.765Z,19.30
2022-08-20T16:27:28.442Z,19.30
2022-08-20T16:30:03.141Z,19.20
2022-08-20T16:32:43.478Z,19.20
2022-08-20T16:35:30.043Z,19.10
2022-08-20T16:38:08.914Z,19.10
2022-08-20T16:40:44.468Z,19.00
2022-08-20T16:43:22.603Z,19.00
2022-08-20T16:45:55.299Z,18.90
2022-08-20T16:48:35.053Z,18.80
2022-08-20T16:51:06.482Z,18.80
2022-08-20T16:53:35.727Z,18.80
2022-08-20T16:56:04.520Z,18.70
2022-08-20T16:58:33.035Z,18.60
2022-08-20T17:01:08.976Z,18.60
2022-08-20T17:03:40.227Z,18.60
2022-08-20T17:06:19.440Z,18.50
2022-08-20T17:08:50.887Z,18.40
2022-08-20T17:11:26.156Z,18.40
2022-08-20T17:14:05.477Z,18.30
2022-08-20T17:16:37.729Z,18.20
2022-08-20T17:19:13.762Z,18.20
2022-08-20T17:21:42.999Z,18.10
2022-08-20T17:24:20.475Z,18.10
2022-08-20T17:26:54.042Z,17.90
2022-08-20T17:29:25.889Z,17.90
2022-08-20T17:31:56.142Z,17.80
2022-08-20T17:34:28.621Z,17.80
2022-08-20T17:37:00.216Z,17.70
2022-08-20T17:39:30.077Z,17.60
2022-08-20T17:42:06.186Z,17.60
2022-08-20T17:44:38.212Z,17.50
2022-08-20T17:47:12.770Z,17.40
2022-08-20T17:50:02.835Z,17.40
2022-08-20T17:52:39.731Z,17.40
2022-08-20T17:55:09.649Z,17.40
2022-08-20T17:57:41.318Z,17.40
2022-08-20T18:00:14.363Z,17.30
2022-08-20T18:02:42.741Z,17.30
2022-08-20T18:05:17.221Z,17.20
2022-08-20T18:08:02.591Z,17.20
2022-08-20T18:10:32.939Z,17.20
2022-08-20T18:13:09.507Z,17.10
2022-08-20T18:15:41.775Z,17.10
2022-08-20T18:18:22.978Z,17.10
2022-08-20T18:21:16.403Z,17.00
2022-08-20T18:23:48.674Z,17.00
2022-08-20T18:26:22.929Z,16.90
2022-08-20T18:28:55.487Z,16.90
2022-08-20T18:31:30.023Z,16.90
2022-08-20T18:33:58.779Z,16.90
2022-08-20T18:36:30.549Z,16.80
2022-08-20T18:39:03.952Z,16.80
2022-08-20T18:41:34.254Z,16.80
2022-08-20T18:44:09.001Z,16.90
2022-08-20T18:46:38.320Z,16.80
2022-08-20T18:49:09.280Z,16.80
2022-08-20T18:51:43.822Z,16.80
2022-08-20T18:54:24.812Z,16.80
2022-08-20T18:57:05.075Z,16.70
2022-08-20T18:59:39.344Z,16.70
2022-08-20T19:02:17.549Z,16.70
2022-08-20T19:04:52.812Z,16.70
2022-08-20T19:07:45.822Z,16.70
2022-08-20T19:10:40.849Z,16.70
2022-08-20T19:13:36.800Z,16.70
2022-08-20T19:16:10.586Z,16.70
2022-08-20T19:18:44.827Z,16.70
2022-08-20T19:21:16.224Z,16.70
2022-08-20T19:23:51.474Z,16.70
2022-08-20T19:26:25.397Z,16.70
2022-08-20T19:28:58.531Z,16.80
2022-08-20T19:31:29.554Z,16.80
2022-08-20T19:34:19.603Z,16.70
2022-08-20T19:36:56.215Z,16.80
2022-08-20T19:39:27.841Z,16.80
2022-08-20T19:42:01.650Z,16.80
2022-08-20T19:44:34.660Z,16.80
2022-08-20T19:47:03.560Z,16.80
2022-08-20T19:49:42.969Z,16.70
2022-08-20T19:52:26.318Z,16.80
2022-08-20T19:55:03.387Z,16.70
2022-08-20T19:57:32.438Z,16.60
2022-08-20T20:00:08.049Z,16.50
2022-08-20T20:02:36.513Z,16.40
2022-08-20T20:05:07.301Z,16.30
2022-08-20T20:07:39.571Z,16.30
2022-08-20T20:10:13.272Z,16.20
2022-08-20T20:12:41.479Z,16.10
2022-08-20T20:15:10.107Z,16.10
2022-08-20T20:17:38.371Z,16.10
2022-08-20T20:20:21.678Z,16.00
2022-08-20T20:22:53.181Z,16.00
2022-08-20T20:25:25.355Z,15.90
2022-08-20T20:27:55.698Z,15.90
2022-08-20T20:30:27.769Z,15.80
2022-08-20T20:32:57.979Z,15.80
2022-08-20T20:35:29.394Z,15.80
2022-08-20T20:38:01.107Z,15.70
2022-08-20T20:40:36.101Z,15.70
2022-08-20T20:43:06.928Z,15.70
2022-08-20T20:45:37.695Z,15.70
2022-08-20T20:48:18.098Z,15.70
2022-08-20T20:50:47.715Z,15.70
2022-08-20T20:53:45.772Z,15.70
2022-08-20T20:56:30.920Z,15.70
2022-08-20T20:59:05.324Z,15.70
2022-08-20T21:01:48.253Z,15.60
2022-08-20T21:04:18.535Z,15.60
2022-08-20T21:06:46.857Z,15.60
2022-08-20T21:09:15.342Z,15.70
2022-08-20T21:11:44.882Z,15.70
2022-08-20T21:14:13.090Z,15.70
2022-08-20T21:16:41.422Z,15.60
2022-08-20T21:19:11.159Z,15.60
2022-08-20T21:21:39.773Z,15.60
2022-08-20T21:24:08.846Z,15.60
2022-08-20T21:26:37.966Z,15.60
2022-08-20T21:29:09.651Z,15.60
2022-08-20T21:31:43.666Z,15.60
2022-08-20T21:34:13.859Z,15.60
2022-08-20T21:36:42.650Z,15.60
2022-08-20T21:39:11.751Z,15.60
2022-08-20T21:41:42.566Z,15.50
2022-08-20T21:44:18.113Z,15.60
2022-08-20T21:46:49.644Z,15.50
2022-08-20T21:49:19.639Z,15.50
2022-08-20T21:51:48.155Z,15.50
2022-08-20T21:54:16.582Z,15.50
2022-08-20T21:56:45.542Z,15.50
2022-08-20T21:59:22.594Z,15.50
2022-08-20T22:01:50.990Z,15.40
2022-08-20T22:04:19.558Z,15.40
2022-08-20T22:06:48.541Z,15.40
2022-08-20T22:09:17.032Z,15.30
2022-08-20T22:11:45.454Z,15.30
2022-08-20T22:14:18.133Z,15.40
2022-08-20T22:16:46.510Z,15.40
2022-08-20T22:19:16.074Z,15.30
2022-08-20T22:21:44.911Z,15.40
2022-08-20T22:24:15.198Z,15.40
2022-08-20T22:26:44.698Z,15.50
2022-08-20T22:29:14.692Z,15.50
2022-08-20T22:31:44.740Z,15.50
2022-08-20T22:34:15.535Z,15.60
2022-08-20T22:36:44.406Z,15.60
2022-08-20T22:39:12.872Z,15.60
2022-08-20T22:41:41.184Z,15.60
2022-08-20T22:44:09.432Z,15.60
2022-08-20T22:46:46.375Z,15.60
2022-08-20T22:49:18.372Z,15.60
2022-08-20T22:51:46.528Z,15.60
2022-08-20T22:54:20.238Z,15.60
2022-08-20T22:56:48.557Z,15.60
2022-08-20T22:59:19.420Z,15.60
2022-08-20T23:01:49.485Z,15.60
2022-08-20T23:04:24.290Z,15.60
2022-08-20T23:06:52.694Z,15.60
2022-08-20T23:09:21.265Z,15.50
2022-08-20T23:11:49.953Z,15.60
2022-08-20T23:14:18.602Z,15.60
2022-08-20T23:16:50.348Z,15.60
2022-08-20T23:19:22.511Z,15.50
2022-08-20T23:21:51.388Z,15.50
2022-08-20T23:24:20.250Z,15.50
2022-08-20T23:26:52.678Z,15.60
2022-08-20T23:29:25.560Z,15.50
2022-08-20T23:31:56.742Z,15.50
2022-08-20T23:34:25.559Z,15.50
2022-08-20T23:36:54.143Z,15.50
2022-08-20T23:39:22.777Z,15.50
2022-08-20T23:41:51.275Z,15.50
2022-08-20T23:44:25.311Z,15.50
2022-08-20T23:46:57.884Z,15.50
2022-08-20T23:49:26.386Z,15.50
2022-08-20T23:51:54.557Z,15.50
2022-08-20T23:54:22.718Z,15.50
2022-08-20T23:56:50.883Z,15.50
2022-08-20T23:59:19.557Z,15.50
